createdAt,value
2023-05-21T00:00:38.452Z,0.00
2023-05-21T00:01:38.460Z,0.00
2023-05-21T00:02:38.539Z,0.00
2023-05-21T00:03:38.553Z,0.00
2023-05-21T00:04:38.456Z,0.00
2023-05-21T00:05:38.804Z,0.00
2023-05-21T00:06:38.530Z,0.00
2023-05-21T00:07:38.496Z,0.00
2023-05-21T00:08:38.462Z,0.00
2023-05-21T00:09:38.463Z,0.00
2023-05-21T00:10:38.462Z,0.00
2023-05-21T00:11:38.463Z,0.00
2023-05-21T00:12:38.456Z,0.00
2023-05-21T00:13:38.461Z,0.00
2023-05-21T00:14:38.476Z,0.00
2023-05-21T00:15:38.481Z,0.00
2023-05-21T00:16:38.514Z,0.00
2023-05-21T00:17:38.481Z,0.00
2023-05-21T00:18:38.461Z,0.00
2023-05-21T00:19:38.464Z,0.00
2023-05-21T00:20:38.467Z,0.00
2023-05-21T00:21:38.460Z,0.00
2023-05-21T00:22:38.465Z,0.00
2023-05-21T00:23:38.558Z,0.00
2023-05-21T00:24:38.468Z,0.00
2023-05-21T00:25:38.470Z,0.00
2023-05-21T00:26:38.461Z,0.00
2023-05-21T00:27:38.471Z,0.00
2023-05-21T00:28:38.471Z,0.00
2023-05-21T00:29:38.471Z,0.00
2023-05-21T00:30:38.467Z,0.00
2023-05-21T00:31:38.502Z,0.00
2023-05-21T00:32:38.493Z,0.00
2023-05-21T00:33:38.470Z,0.00
2023-05-21T00:34:38.463Z,0.00
2023-05-21T00:35:38.470Z,0.00
2023-05-21T00:36:38.463Z,0.00
2023-05-21T00:37:38.465Z,0.00
2023-05-21T00:38:38.465Z,0.00
2023-05-21T00:39:38.486Z,0.00
2023-05-21T00:40:38.473Z,0.00
2023-05-21T00:41:38.467Z,0.00
2023-05-21T00:42:38.469Z,0.00
2023-05-21T00:43:38.470Z,0.00
2023-05-21T00:44:38.471Z,0.00
2023-05-21T00:45:38.828Z,0.00
2023-05-21T00:46:38.468Z,0.00
2023-05-21T00:47:38.481Z,0.00
2023-05-21T00:48:38.469Z,0.00
2023-05-21T00:49:38.482Z,0.00
2023-05-21T00:50:38.470Z,0.00
2023-05-21T00:51:38.484Z,0.00
2023-05-21T00:52:38.475Z,0.00
2023-05-21T00:53:38.479Z,0.00
2023-05-21T00:54:38.485Z,0.00
2023-05-21T00:55:38.691Z,0.00
2023-05-21T00:56:38.471Z,0.00
2023-05-21T00:57:38.482Z,0.00
2023-05-21T00:58:38.469Z,0.00
2023-05-21T00:59:38.476Z,0.00
2023-05-21T01:00:38.480Z,0.00
2023-05-21T01:01:38.532Z,0.00
2023-05-21T01:02:38.612Z,0.00
2023-05-21T01:03:38.746Z,0.00
2023-05-21T01:04:38.476Z,0.00
2023-05-21T01:05:38.484Z,0.00
2023-05-21T01:06:38.474Z,0.00
2023-05-21T01:07:38.480Z,0.00
2023-05-21T01:08:38.481Z,0.00
2023-05-21T01:09:38.486Z,0.00
2023-05-21T01:10:38.477Z,0.00
2023-05-21T01:11:38.496Z,0.00
2023-05-21T01:12:38.486Z,0.00
2023-05-21T01:13:38.479Z,0.00
2023-05-21T01:14:38.479Z,0.00
2023-05-21T01:15:38.496Z,0.00
2023-05-21T01:16:38.538Z,0.00
2023-05-21T01:17:38.532Z,0.00
2023-05-21T01:18:38.671Z,0.00
2023-05-21T01:19:38.503Z,0.00
2023-05-21T01:20:38.476Z,0.00
2023-05-21T01:21:38.482Z,0.00
2023-05-21T01:22:38.479Z,0.00
2023-05-21T01:23:38.476Z,0.00
2023-05-21T01:24:38.478Z,0.00
2023-05-21T01:25:38.659Z,0.00
2023-05-21T01:26:38.484Z,0.00
2023-05-21T01:27:38.503Z,0.00
2023-05-21T01:28:38.481Z,0.00
2023-05-21T01:29:38.483Z,0.00
2023-05-21T01:30:38.478Z,0.00
2023-05-21T01:31:38.481Z,0.00
2023-05-21T01:32:38.585Z,0.00
2023-05-21T01:33:38.594Z,0.00
2023-05-21T01:34:38.482Z,0.00
2023-05-21T01:35:38.714Z,0.00
2023-05-21T01:36:38.476Z,0.00
2023-05-21T01:37:38.495Z,0.00
2023-05-21T01:38:38.489Z,0.00
2023-05-21T01:39:38.489Z,0.00
2023-05-21T01:40:38.500Z,0.00
2023-05-21T01:41:38.495Z,0.00
2023-05-21T01:42:38.482Z,0.00
2023-05-21T01:43:38.547Z,0.00
2023-05-21T01:44:38.486Z,0.00
2023-05-21T01:45:38.488Z,0.00
2023-05-21T01:46:38.568Z,0.00
2023-05-21T01:47:38.560Z,0.00
2023-05-21T01:48:38.483Z,0.00
2023-05-21T01:49:38.488Z,0.00
2023-05-21T01:50:38.496Z,0.00
2023-05-21T01:51:38.492Z,0.00
2023-05-21T01:52:38.488Z,0.00
2023-05-21T01:53:38.493Z,0.00
2023-05-21T01:54:38.491Z,0.00
2023-05-21T01:55:38.755Z,0.00
2023-05-21T01:56:38.514Z,0.00
2023-05-21T01:57:38.491Z,0.00
2023-05-21T01:58:38.502Z,0.00
2023-05-21T01:59:38.520Z,0.00
2023-05-21T02:00:38.485Z,0.00
2023-05-21T02:01:38.513Z,0.00
2023-05-21T02:02:38.546Z,0.00
2023-05-21T02:03:38.698Z,0.00
2023-05-21T02:04:38.493Z,0.00
2023-05-21T02:05:38.774Z,0.00
2023-05-21T02:06:38.490Z,0.00
2023-05-21T02:07:38.495Z,0.00
2023-05-21T02:08:38.499Z,0.00
2023-05-21T02:09:38.496Z,0.00
2023-05-21T02:10:38.488Z,0.00
2023-05-21T02:11:38.499Z,0.00
2023-05-21T02:12:38.489Z,0.00
2023-05-21T02:13:38.499Z,0.00
2023-05-21T02:14:38.494Z,0.00
2023-05-21T02:15:38.629Z,0.00
2023-05-21T02:16:38.720Z,0.00
2023-05-21T02:17:38.540Z,0.00
2023-05-21T02:18:38.494Z,0.00
2023-05-21T02:19:38.497Z,0.00
2023-05-21T02:20:38.493Z,0.00
2023-05-21T02:21:38.496Z,0.00
2023-05-21T02:22:38.494Z,0.00
2023-05-21T02:23:38.502Z,0.00
2023-05-21T02:24:38.540Z,0.00
2023-05-21T02:25:38.717Z,0.00
2023-05-21T02:26:38.499Z,0.00
2023-05-21T02:27:38.503Z,0.00
2023-05-21T02:28:38.510Z,0.00
2023-05-21T02:29:38.508Z,0.00
2023-05-21T02:30:38.503Z,0.00
2023-05-21T02:31:38.523Z,0.00
2023-05-21T02:32:38.564Z,0.00
2023-05-21T02:33:38.530Z,0.00
2023-05-21T02:34:38.502Z,0.00
2023-05-21T02:35:38.644Z,0.00
2023-05-21T02:36:38.507Z,0.00
2023-05-21T02:37:38.509Z,0.00
2023-05-21T02:38:38.512Z,0.00
2023-05-21T02:39:38.504Z,0.00
2023-05-21T02:40:38.510Z,0.00
2023-05-21T02:41:38.525Z,0.00
2023-05-21T02:42:38.507Z,0.00
2023-05-21T02:43:38.505Z,0.00
2023-05-21T02:44:38.508Z,0.00
2023-05-21T02:45:38.777Z,0.00
2023-05-21T02:46:38.503Z,0.00
2023-05-21T02:47:38.699Z,0.00
2023-05-21T02:48:38.505Z,0.00
2023-05-21T02:49:38.504Z,0.00
2023-05-21T02:50:38.502Z,0.00
2023-05-21T02:51:38.508Z,0.00
2023-05-21T02:52:38.501Z,0.00
2023-05-21T02:53:38.509Z,0.00
2023-05-21T02:54:38.510Z,0.00
2023-05-21T02:55:38.698Z,0.00
2023-05-21T02:56:38.501Z,0.00
2023-05-21T02:57:38.509Z,0.00
2023-05-21T02:58:38.502Z,0.00
2023-05-21T02:59:38.504Z,0.00
2023-05-21T03:00:38.500Z,0.00
2023-05-21T03:01:38.520Z,0.00
2023-05-21T03:02:38.564Z,5.63
2023-05-21T03:03:38.612Z,5.63
2023-05-21T03:04:38.503Z,5.63
2023-05-21T03:05:38.757Z,5.63
2023-05-21T03:06:38.509Z,5.63
2023-05-21T03:07:38.505Z,5.63
2023-05-21T03:08:38.507Z,5.63
2023-05-21T03:09:38.525Z,5.63
2023-05-21T03:10:38.502Z,5.63
2023-05-21T03:11:38.504Z,5.63
2023-05-21T03:12:38.500Z,11.25
2023-05-21T03:13:38.615Z,11.25
2023-05-21T03:14:38.509Z,11.25
2023-05-21T03:15:38.637Z,11.25
2023-05-21T03:16:38.528Z,11.25
2023-05-21T03:17:38.554Z,11.25
2023-05-21T03:18:38.504Z,11.25
2023-05-21T03:19:38.525Z,16.88
2023-05-21T03:20:38.504Z,16.88
2023-05-21T03:21:38.509Z,16.88
2023-05-21T03:22:38.509Z,16.88
2023-05-21T03:23:38.503Z,16.88
2023-05-21T03:24:38.511Z,16.88
2023-05-21T03:25:38.503Z,22.50
2023-05-21T03:26:38.513Z,22.50
2023-05-21T03:27:38.509Z,22.50
2023-05-21T03:28:38.505Z,22.50
2023-05-21T03:29:38.504Z,22.50
2023-05-21T03:30:38.515Z,28.13
2023-05-21T03:31:38.683Z,28.13
2023-05-21T03:32:38.516Z,28.13
2023-05-21T03:33:38.511Z,28.13
2023-05-21T03:34:38.513Z,28.13
2023-05-21T03:35:38.644Z,28.13
2023-05-21T03:36:38.511Z,33.75
2023-05-21T03:37:38.502Z,33.75
2023-05-21T03:38:38.507Z,33.75
2023-05-21T03:39:38.510Z,33.75
2023-05-21T03:40:38.515Z,33.75
2023-05-21T03:41:38.513Z,39.38
2023-05-21T03:42:38.515Z,39.38
2023-05-21T03:43:38.510Z,39.38
2023-05-21T03:44:38.528Z,39.38
2023-05-21T03:45:39.425Z,39.38
2023-05-21T03:46:38.532Z,45.00
2023-05-21T03:47:38.575Z,45.00
2023-05-21T03:48:38.510Z,45.00
2023-05-21T03:49:38.510Z,45.00
2023-05-21T03:50:38.512Z,45.00
2023-05-21T03:51:38.535Z,50.63
2023-05-21T03:52:38.508Z,50.63
2023-05-21T03:53:38.514Z,50.63
2023-05-21T03:54:38.516Z,50.63
2023-05-21T03:55:38.565Z,56.25
2023-05-21T03:56:38.512Z,56.25
2023-05-21T03:57:38.509Z,56.25
2023-05-21T03:58:38.525Z,56.25
2023-05-21T03:59:38.520Z,56.25
2023-05-21T04:00:38.514Z,61.88
2023-05-21T04:01:38.512Z,61.88
2023-05-21T04:02:38.602Z,61.88
2023-05-21T04:03:40.737Z,67.50
2023-05-21T04:04:38.583Z,67.50
2023-05-21T04:05:38.625Z,67.50
2023-05-21T04:06:38.513Z,73.13
2023-05-21T04:07:38.531Z,73.13
2023-05-21T04:08:38.517Z,78.75
2023-05-21T04:09:38.508Z,78.75
2023-05-21T04:10:38.514Z,84.38
2023-05-21T04:11:38.516Z,84.38
2023-05-21T04:12:38.532Z,84.38
2023-05-21T04:13:38.526Z,90.00
2023-05-21T04:14:38.521Z,90.00
2023-05-21T04:15:38.857Z,90.00
2023-05-21T04:16:38.589Z,95.63
2023-05-21T04:17:38.592Z,95.63
2023-05-21T04:18:38.522Z,95.63
2023-05-21T04:19:38.544Z,101.25
2023-05-21T04:20:38.525Z,101.25
2023-05-21T04:21:38.524Z,101.25
2023-05-21T04:22:38.519Z,106.88
2023-05-21T04:23:38.538Z,106.88
2023-05-21T04:24:38.515Z,112.50
2023-05-21T04:25:38.514Z,112.50
2023-05-21T04:26:38.532Z,118.13
2023-05-21T04:27:38.537Z,118.13
2023-05-21T04:28:38.512Z,123.75
2023-05-21T04:29:38.519Z,129.38
2023-05-21T04:30:38.519Z,129.38
2023-05-21T04:31:38.670Z,135.00
2023-05-21T04:32:38.586Z,135.00
2023-05-21T04:33:38.515Z,135.00
2023-05-21T04:34:38.525Z,140.63
2023-05-21T04:35:38.585Z,140.63
2023-05-21T04:36:38.522Z,140.63
2023-05-21T04:37:38.519Z,140.63
2023-05-21T04:38:38.523Z,140.63
2023-05-21T04:39:38.536Z,146.25
2023-05-21T04:40:38.518Z,146.25
2023-05-21T04:41:38.517Z,151.88
2023-05-21T04:42:38.520Z,151.88
2023-05-21T04:43:38.545Z,157.50
2023-05-21T04:44:38.517Z,163.13
2023-05-21T04:45:38.726Z,163.13
2023-05-21T04:46:41.009Z,168.75
2023-05-21T04:47:38.561Z,168.75
2023-05-21T04:48:38.522Z,168.75
2023-05-21T04:49:38.547Z,174.38
2023-05-21T04:50:38.523Z,174.38
2023-05-21T04:51:38.520Z,180.00
2023-05-21T04:52:38.527Z,180.00
2023-05-21T04:53:38.527Z,180.00
2023-05-21T04:54:38.520Z,185.63
2023-05-21T04:55:38.632Z,185.63
2023-05-21T04:56:38.520Z,185.63
2023-05-21T04:57:38.517Z,191.25
2023-05-21T04:58:38.529Z,196.88
2023-05-21T04:59:38.522Z,196.88
2023-05-21T05:00:38.552Z,202.50
2023-05-21T05:01:38.699Z,202.50
2023-05-21T05:02:38.554Z,202.50
2023-05-21T05:03:38.548Z,208.13
2023-05-21T05:04:38.529Z,208.13
2023-05-21T05:05:38.765Z,208.13
2023-05-21T05:06:38.537Z,208.13
2023-05-21T05:07:38.524Z,213.75
2023-05-21T05:08:38.543Z,213.75
2023-05-21T05:09:38.520Z,213.75
2023-05-21T05:10:38.528Z,213.75
2023-05-21T05:11:38.565Z,219.38
2023-05-21T05:12:38.544Z,219.38
2023-05-21T05:13:38.530Z,219.38
2023-05-21T05:14:38.530Z,219.38
2023-05-21T05:15:38.729Z,225.00
2023-05-21T05:16:38.562Z,225.00
2023-05-21T05:17:38.546Z,225.00
2023-05-21T05:18:38.541Z,230.63
2023-05-21T05:19:38.534Z,230.63
2023-05-21T05:20:38.543Z,236.25
2023-05-21T05:21:38.526Z,236.25
2023-05-21T05:22:38.536Z,241.88
2023-05-21T05:23:38.540Z,241.88
2023-05-21T05:24:38.532Z,247.50
2023-05-21T05:25:38.774Z,247.50
2023-05-21T05:26:38.535Z,247.50
2023-05-21T05:27:38.792Z,247.50
2023-05-21T05:28:38.536Z,253.13
2023-05-21T05:29:38.536Z,258.75
2023-05-21T05:30:38.597Z,264.38
2023-05-21T05:31:38.537Z,270.00
2023-05-21T05:32:38.543Z,270.00
2023-05-21T05:33:38.537Z,275.63
2023-05-21T05:34:38.538Z,275.63
2023-05-21T05:35:38.677Z,275.63
2023-05-21T05:36:38.541Z,275.63
2023-05-21T05:37:38.533Z,281.25
2023-05-21T05:38:38.552Z,286.88
2023-05-21T05:39:38.540Z,292.50
2023-05-21T05:40:38.536Z,292.50
2023-05-21T05:41:38.544Z,292.50
2023-05-21T05:42:38.541Z,298.13
2023-05-21T05:43:38.564Z,303.75
2023-05-21T05:44:38.541Z,303.75
2023-05-21T05:45:38.992Z,303.75
2023-05-21T05:46:38.651Z,303.75
2023-05-21T05:47:38.568Z,309.38
2023-05-21T05:48:38.575Z,309.38
2023-05-21T05:49:38.547Z,315.00
2023-05-21T05:50:38.543Z,320.63
2023-05-21T05:51:38.544Z,320.63
2023-05-21T05:52:38.552Z,326.25
2023-05-21T05:53:38.552Z,331.88
2023-05-21T05:54:38.553Z,337.50
2023-05-21T05:55:38.810Z,337.50
2023-05-21T05:56:38.552Z,343.13
2023-05-21T05:57:38.555Z,343.13
2023-05-21T05:58:38.553Z,343.13
2023-05-21T05:59:38.573Z,348.75
2023-05-21T06:00:38.554Z,354.38
2023-05-21T06:01:38.580Z,354.38
2023-05-21T06:02:38.608Z,360.00
2023-05-21T06:03:38.789Z,371.25
2023-05-21T06:04:38.554Z,365.63
2023-05-21T06:05:38.889Z,365.63
2023-05-21T06:06:38.561Z,365.63
2023-05-21T06:07:38.564Z,365.63
2023-05-21T06:08:38.557Z,365.63
2023-05-21T06:09:38.554Z,365.63
2023-05-21T06:10:38.571Z,365.63
2023-05-21T06:11:38.558Z,365.63
2023-05-21T06:12:38.564Z,365.63
2023-05-21T06:13:38.570Z,360.00
2023-05-21T06:14:38.573Z,360.00
2023-05-21T06:15:38.947Z,365.63
2023-05-21T06:16:38.705Z,365.63
2023-05-21T06:17:38.588Z,365.63
2023-05-21T06:18:38.574Z,360.00
2023-05-21T06:19:38.564Z,360.00
2023-05-21T06:20:38.594Z,360.00
2023-05-21T06:21:38.576Z,371.25
2023-05-21T06:22:38.570Z,365.63
2023-05-21T06:23:38.569Z,376.88
2023-05-21T06:24:38.576Z,371.25
2023-05-21T06:25:38.878Z,376.88
2023-05-21T06:26:38.577Z,376.88
2023-05-21T06:27:38.584Z,376.88
2023-05-21T06:28:38.580Z,382.50
2023-05-21T06:29:38.571Z,393.75
2023-05-21T06:30:38.588Z,393.75
2023-05-21T06:31:38.606Z,405.00
2023-05-21T06:32:38.617Z,410.63
2023-05-21T06:33:38.649Z,416.25
2023-05-21T06:34:38.583Z,416.25
2023-05-21T06:35:38.679Z,421.88
2023-05-21T06:36:38.597Z,421.88
2023-05-21T06:37:38.586Z,421.88
2023-05-21T06:38:38.592Z,427.50
2023-05-21T06:39:38.593Z,427.50
2023-05-21T06:40:38.594Z,427.50
2023-05-21T06:41:38.597Z,427.50
2023-05-21T06:42:38.598Z,427.50
2023-05-21T06:43:38.595Z,427.50
2023-05-21T06:44:38.602Z,427.50
2023-05-21T06:45:38.993Z,427.50
2023-05-21T06:46:38.612Z,427.50
2023-05-21T06:47:38.736Z,421.88
2023-05-21T06:48:38.614Z,421.88
2023-05-21T06:49:38.614Z,416.25
2023-05-21T06:50:38.610Z,416.25
2023-05-21T06:51:38.604Z,416.25
2023-05-21T06:52:38.621Z,410.63
2023-05-21T06:53:38.605Z,405.00
2023-05-21T06:54:38.614Z,399.38
2023-05-21T06:55:38.769Z,399.38
2023-05-21T06:56:38.614Z,393.75
2023-05-21T06:57:38.632Z,393.75
2023-05-21T06:58:38.628Z,388.13
2023-05-21T06:59:38.626Z,382.50
2023-05-21T07:00:38.623Z,382.50
2023-05-21T07:01:38.682Z,376.88
2023-05-21T07:02:38.746Z,365.63
2023-05-21T07:03:38.681Z,360.00
2023-05-21T07:04:38.628Z,360.00
2023-05-21T07:05:38.858Z,354.38
2023-05-21T07:06:38.632Z,354.38
2023-05-21T07:07:38.628Z,348.75
2023-05-21T07:08:38.638Z,343.13
2023-05-21T07:09:38.628Z,331.88
2023-05-21T07:10:38.645Z,326.25
2023-05-21T07:11:38.636Z,320.63
2023-05-21T07:12:38.644Z,315.00
2023-05-21T07:13:38.635Z,309.38
2023-05-21T07:14:38.645Z,303.75
2023-05-21T07:15:38.920Z,298.13
2023-05-21T07:16:38.692Z,298.13
2023-05-21T07:17:38.678Z,292.50
2023-05-21T07:18:38.661Z,292.50
2023-05-21T07:19:38.682Z,292.50
2023-05-21T07:20:38.647Z,298.13
2023-05-21T07:21:38.661Z,298.13
2023-05-21T07:22:38.650Z,303.75
2023-05-21T07:23:38.676Z,303.75
2023-05-21T07:24:38.656Z,309.38
2023-05-21T07:25:38.774Z,320.63
2023-05-21T07:26:38.662Z,326.25
2023-05-21T07:27:38.663Z,337.50
2023-05-21T07:28:38.664Z,343.13
2023-05-21T07:29:38.667Z,354.38
2023-05-21T07:30:38.660Z,365.63
2023-05-21T07:31:38.694Z,371.25
2023-05-21T07:32:38.689Z,371.25
2023-05-21T07:33:38.674Z,382.50
2023-05-21T07:34:38.671Z,388.13
2023-05-21T07:35:38.890Z,388.13
2023-05-21T07:36:38.667Z,393.75
2023-05-21T07:37:38.697Z,393.75
2023-05-21T07:38:38.683Z,399.38
2023-05-21T07:39:38.683Z,410.63
2023-05-21T07:40:38.684Z,421.88
2023-05-21T07:41:38.691Z,438.75
2023-05-21T07:42:38.685Z,444.38
2023-05-21T07:43:38.690Z,455.63
2023-05-21T07:44:38.688Z,478.13
2023-05-21T07:45:38.856Z,489.38
2023-05-21T07:46:38.790Z,506.25
2023-05-21T07:47:38.722Z,517.50
2023-05-21T07:48:38.719Z,534.38
2023-05-21T07:49:38.705Z,545.63
2023-05-21T07:50:38.711Z,562.50
2023-05-21T07:51:38.739Z,613.13
2023-05-21T07:52:38.730Z,928.13
2023-05-21T07:53:38.709Z,1558.13
2023-05-21T07:54:38.714Z,2295.00
2023-05-21T07:55:38.872Z,2812.50
2023-05-21T07:56:38.724Z,2829.38
2023-05-21T07:57:38.730Z,2761.88
2023-05-21T07:58:38.724Z,2700.00
2023-05-21T07:59:38.751Z,2806.88
2023-05-21T08:00:38.738Z,2919.38
2023-05-21T08:01:38.734Z,2986.88
2023-05-21T08:02:38.842Z,2986.88
2023-05-21T08:03:38.911Z,3099.38
2023-05-21T08:04:41.100Z,3211.88
2023-05-21T08:05:38.889Z,3189.38
2023-05-21T08:06:38.753Z,3116.25
2023-05-21T08:07:38.795Z,3138.75
2023-05-21T08:08:38.760Z,3121.88
2023-05-21T08:09:38.823Z,3521.25
2023-05-21T08:10:38.781Z,3611.25
2023-05-21T08:11:38.797Z,3476.25
2023-05-21T08:12:38.785Z,3605.63
2023-05-21T08:13:38.797Z,3622.50
2023-05-21T08:14:38.802Z,3493.13
2023-05-21T08:15:38.989Z,3324.38
2023-05-21T08:16:38.875Z,3166.88
2023-05-21T08:17:38.848Z,3031.88
2023-05-21T08:18:38.835Z,2936.25
2023-05-21T08:19:39.119Z,2986.88
2023-05-21T08:20:38.850Z,2902.50
2023-05-21T08:21:38.862Z,2863.13
2023-05-21T08:22:38.872Z,2851.88
2023-05-21T08:23:38.904Z,2908.13
2023-05-21T08:24:38.889Z,2885.63
2023-05-21T08:25:39.102Z,2998.13
2023-05-21T08:26:38.911Z,2941.88
2023-05-21T08:27:38.930Z,3031.88
2023-05-21T08:28:38.935Z,3211.88
2023-05-21T08:29:38.948Z,3256.88
2023-05-21T08:30:38.962Z,3633.75
2023-05-21T08:31:38.989Z,3825.00
2023-05-21T08:32:39.065Z,3937.50
2023-05-21T08:33:39.010Z,3943.13
2023-05-21T08:34:38.994Z,4134.38
2023-05-21T08:35:39.275Z,4252.50
2023-05-21T08:36:39.040Z,4359.38
2023-05-21T08:37:39.039Z,4275.00
2023-05-21T08:38:39.056Z,4111.88
2023-05-21T08:39:39.099Z,3903.75
2023-05-21T08:40:39.100Z,3853.13
2023-05-21T08:41:39.093Z,3937.50
2023-05-21T08:42:39.103Z,4027.50
2023-05-21T08:43:39.126Z,3785.63
2023-05-21T08:44:39.139Z,3735.00
2023-05-21T08:45:39.537Z,3645.00
2023-05-21T08:46:39.162Z,3532.50
2023-05-21T08:47:39.206Z,3346.88
2023-05-21T08:48:39.194Z,3093.75
2023-05-21T08:49:39.234Z,2902.50
2023-05-21T08:50:39.221Z,2716.88
2023-05-21T08:51:39.233Z,2851.88
2023-05-21T08:52:39.245Z,3088.13
2023-05-21T08:53:39.258Z,3037.50
2023-05-21T08:54:39.293Z,3465.00
2023-05-21T08:55:39.308Z,3521.25
2023-05-21T08:56:39.303Z,3656.25
2023-05-21T08:57:39.336Z,3538.13
2023-05-21T08:58:39.373Z,3633.75
2023-05-21T08:59:39.353Z,3701.25
2023-05-21T09:00:39.355Z,3628.13
2023-05-21T09:01:39.466Z,3594.38
2023-05-21T09:02:39.440Z,3543.75
2023-05-21T09:03:39.534Z,3605.63
2023-05-21T09:04:39.447Z,3796.88
2023-05-21T09:05:39.439Z,3813.75
2023-05-21T09:06:39.459Z,3892.50
2023-05-21T09:07:39.479Z,3448.13
2023-05-21T09:08:39.486Z,3504.38
2023-05-21T09:09:39.505Z,3830.63
2023-05-21T09:10:39.524Z,3616.88
2023-05-21T09:11:39.562Z,3926.25
2023-05-21T09:12:39.550Z,3943.13
2023-05-21T09:13:39.570Z,4005.00
2023-05-21T09:14:39.580Z,4055.63
2023-05-21T09:15:39.640Z,4083.75
2023-05-21T09:16:39.658Z,4314.38
2023-05-21T09:17:39.661Z,4151.25
2023-05-21T09:18:39.650Z,3915.00
2023-05-21T09:19:39.748Z,3780.00
2023-05-21T09:20:39.679Z,3886.88
2023-05-21T09:21:39.699Z,3836.25
2023-05-21T09:22:39.718Z,3898.13
2023-05-21T09:23:39.736Z,3875.63
2023-05-21T09:24:39.768Z,3948.75
2023-05-21T09:25:39.961Z,3819.38
2023-05-21T09:26:39.783Z,3763.13
2023-05-21T09:27:39.842Z,3785.63
2023-05-21T09:28:39.823Z,3785.63
2023-05-21T09:29:39.840Z,3706.88
2023-05-21T09:30:40.011Z,3380.63
2023-05-21T09:31:39.935Z,3206.25
2023-05-21T09:32:39.960Z,2953.13
2023-05-21T09:33:39.904Z,2908.13
2023-05-21T09:34:39.926Z,2711.25
2023-05-21T09:35:39.942Z,2778.75
2023-05-21T09:36:39.955Z,2716.88
2023-05-21T09:37:40.006Z,2649.38
2023-05-21T09:38:39.989Z,2548.13
2023-05-21T09:39:40.023Z,2728.13
2023-05-21T09:40:40.034Z,2604.38
2023-05-21T09:41:40.046Z,2424.38
2023-05-21T09:42:40.066Z,2491.88
2023-05-21T09:43:40.110Z,2458.13
2023-05-21T09:44:40.088Z,2559.38
2023-05-21T09:45:40.114Z,2896.88
2023-05-21T09:46:40.170Z,2851.88
2023-05-21T09:47:40.226Z,2795.63
2023-05-21T09:48:40.160Z,2857.50
2023-05-21T09:49:40.188Z,2835.00
2023-05-21T09:50:40.196Z,2902.50
2023-05-21T09:51:40.223Z,2930.63
2023-05-21T09:52:42.110Z,2823.75
2023-05-21T09:53:40.247Z,2660.63
2023-05-21T09:54:40.262Z,2536.88
2023-05-21T09:55:40.284Z,2396.25
2023-05-21T09:56:40.299Z,2514.38
2023-05-21T09:57:40.314Z,2469.38
2023-05-21T09:58:40.334Z,2458.13
2023-05-21T09:59:40.373Z,2739.38
2023-05-21T10:00:40.374Z,2863.13
2023-05-21T10:01:40.421Z,3161.25
2023-05-21T10:02:40.429Z,3414.38
2023-05-21T10:03:40.412Z,3504.38
2023-05-21T10:04:40.471Z,3661.88
2023-05-21T10:05:40.468Z,3808.13
2023-05-21T10:06:40.461Z,3864.38
2023-05-21T10:07:40.478Z,3780.00
2023-05-21T10:08:40.500Z,3915.00
2023-05-21T10:09:40.514Z,3965.63
2023-05-21T10:10:40.532Z,3943.13
2023-05-21T10:11:40.545Z,3943.13
2023-05-21T10:12:40.560Z,3723.75
2023-05-21T10:13:40.599Z,3864.38
2023-05-21T10:14:40.596Z,3706.88
2023-05-21T10:15:40.647Z,3493.13
2023-05-21T10:16:40.691Z,3650.63
2023-05-21T10:17:40.677Z,3723.75
2023-05-21T10:18:40.670Z,3813.75
2023-05-21T10:19:40.698Z,4083.75
2023-05-21T10:20:40.699Z,4111.88
2023-05-21T10:21:40.726Z,3982.50
2023-05-21T10:22:40.751Z,4218.75
2023-05-21T10:23:40.758Z,4252.50
2023-05-21T10:24:40.789Z,4246.88
2023-05-21T10:25:40.806Z,3555.00
2023-05-21T10:26:40.827Z,3673.13
2023-05-21T10:27:40.836Z,3763.13
2023-05-21T10:28:40.854Z,3886.88
2023-05-21T10:29:40.871Z,4055.63
2023-05-21T10:30:40.884Z,4156.88
2023-05-21T10:31:40.965Z,4246.88
2023-05-21T10:32:41.023Z,4393.13
2023-05-21T10:33:40.956Z,4291.88
2023-05-21T10:34:40.965Z,4680.00
2023-05-21T10:35:41.008Z,4725.00
2023-05-21T10:36:41.000Z,4753.13
2023-05-21T10:37:41.021Z,4674.38
2023-05-21T10:38:41.057Z,4488.75
2023-05-21T10:39:41.068Z,4443.75
2023-05-21T10:40:41.086Z,4618.13
2023-05-21T10:41:41.103Z,4398.75
2023-05-21T10:42:41.119Z,4336.88
2023-05-21T10:43:41.136Z,4561.88
2023-05-21T10:44:41.150Z,4837.50
2023-05-21T10:45:41.248Z,4871.25
2023-05-21T10:46:41.194Z,4921.88
2023-05-21T10:47:41.289Z,4635.00
2023-05-21T10:48:41.233Z,4207.50
2023-05-21T10:49:41.254Z,4027.50
2023-05-21T10:50:41.277Z,3943.13
2023-05-21T10:51:41.308Z,4072.50
2023-05-21T10:52:41.314Z,4353.75
2023-05-21T10:53:41.335Z,4522.50
2023-05-21T10:54:41.355Z,4831.88
2023-05-21T10:55:41.385Z,4798.13
2023-05-21T10:56:41.391Z,4629.38
2023-05-21T10:57:41.416Z,4612.50
2023-05-21T10:58:41.429Z,4590.00
2023-05-21T10:59:41.467Z,4916.25
2023-05-21T11:00:41.468Z,5023.13
2023-05-21T11:01:41.701Z,4843.13
2023-05-21T11:02:41.565Z,4803.75
2023-05-21T11:03:41.660Z,4691.25
2023-05-21T11:04:41.549Z,4488.75
2023-05-21T11:05:41.576Z,4590.00
2023-05-21T11:06:41.590Z,4623.75
2023-05-21T11:07:41.609Z,4781.25
2023-05-21T11:08:41.631Z,4803.75
2023-05-21T11:09:41.651Z,4612.50
2023-05-21T11:10:41.687Z,4635.00
2023-05-21T11:11:41.693Z,4449.38
2023-05-21T11:12:41.710Z,4213.13
2023-05-21T11:13:41.731Z,4207.50
2023-05-21T11:14:41.759Z,3892.50
2023-05-21T11:15:41.779Z,3718.13
2023-05-21T11:16:41.831Z,3633.75
2023-05-21T11:17:41.837Z,3819.38
2023-05-21T11:18:42.038Z,4055.63
2023-05-21T11:19:41.972Z,4005.00
2023-05-21T11:20:41.863Z,601.88
2023-05-21T11:21:41.889Z,590.63
2023-05-21T11:22:41.901Z,568.13
2023-05-21T11:23:41.929Z,551.25
2023-05-21T11:24:41.952Z,540.00
2023-05-21T11:25:41.965Z,540.00
2023-05-21T11:26:41.980Z,528.75
2023-05-21T11:27:42.008Z,534.38
2023-05-21T11:28:42.021Z,545.63
2023-05-21T11:29:42.041Z,556.88
2023-05-21T11:30:42.287Z,568.13
2023-05-21T11:31:42.156Z,568.13
2023-05-21T11:32:42.135Z,573.75
2023-05-21T11:33:42.108Z,585.00
2023-05-21T11:34:42.131Z,601.88
2023-05-21T11:35:42.165Z,607.50
2023-05-21T11:36:42.159Z,618.75
2023-05-21T11:37:42.172Z,568.13
2023-05-21T11:38:42.190Z,461.25
2023-05-21T11:39:42.204Z,540.00
2023-05-21T11:40:42.221Z,551.25
2023-05-21T11:41:42.255Z,568.13
2023-05-21T11:42:42.251Z,573.75
2023-05-21T11:43:42.267Z,573.75
2023-05-21T11:44:42.293Z,585.00
2023-05-21T11:45:42.295Z,585.00
2023-05-21T11:46:42.384Z,596.25
2023-05-21T11:47:42.368Z,613.13
2023-05-21T11:48:42.345Z,635.63
2023-05-21T11:49:42.357Z,652.50
2023-05-21T11:50:42.378Z,697.50
2023-05-21T11:51:42.417Z,736.88
2023-05-21T11:52:42.403Z,787.50
2023-05-21T11:53:44.233Z,607.50
2023-05-21T11:54:42.428Z,793.13
2023-05-21T11:55:42.443Z,905.63
2023-05-21T11:56:42.467Z,916.88
2023-05-21T11:57:42.469Z,883.13
2023-05-21T11:58:42.484Z,945.00
2023-05-21T11:59:42.493Z,950.63
2023-05-21T12:00:42.511Z,905.63
2023-05-21T12:01:42.520Z,855.00
2023-05-21T12:02:42.632Z,888.75
2023-05-21T12:03:42.681Z,928.13
2023-05-21T12:04:42.582Z,956.25
2023-05-21T12:05:42.657Z,978.75
2023-05-21T12:06:42.600Z,967.50
2023-05-21T12:07:42.660Z,984.38
2023-05-21T12:08:42.627Z,1040.63
2023-05-21T12:09:42.633Z,1023.75
2023-05-21T12:10:43.873Z,1001.25
2023-05-21T12:11:42.657Z,1063.13
2023-05-21T12:12:53.827Z,1018.13
2023-05-21T12:13:42.686Z,1085.63
2023-05-21T12:14:42.713Z,1085.63
2023-05-21T12:15:42.709Z,1080.00
2023-05-21T12:16:42.767Z,1074.38
2023-05-21T12:17:42.807Z,956.25
2023-05-21T12:18:42.757Z,928.13
2023-05-21T12:19:42.775Z,1046.25
2023-05-21T12:20:42.781Z,1051.88
2023-05-21T12:21:42.796Z,1068.75
2023-05-21T12:22:42.822Z,1057.50
2023-05-21T12:23:42.854Z,1051.88
2023-05-21T12:24:42.835Z,1023.75
2023-05-21T12:25:42.844Z,1046.25
2023-05-21T12:26:42.876Z,1035.00
2023-05-21T12:27:42.874Z,1040.63
2023-05-21T12:28:42.892Z,1023.75
2023-05-21T12:29:42.904Z,1001.25
2023-05-21T12:30:42.913Z,945.00
2023-05-21T12:31:42.980Z,990.00
2023-05-21T12:32:42.990Z,973.13
2023-05-21T12:33:42.977Z,973.13
2023-05-21T12:34:42.979Z,950.63
2023-05-21T12:35:43.000Z,967.50